Search for airport 
image banner adimage banner adimage banner ad
image banner ad

KMQS - Chester County G O Carlson

Located in Coatesville, United States

ICAO - MQS, IATA - CTH

Data provided by Airmate  

General information

Coordinates: N39°58'44" W75°51'56"
Elevation is 660 feet MSL.
Magnetic variation is -11° East
View others Airports in Pennsylvania

Operational data

Special qualification required
Current time UTC:
Current local time:
Weather
METAR: KMQS 091655Z AUTO VRB04KT 9SM -RA FEW044 BKN060 10/04 A3007 RMK AO2
View NOTAMs / SUP AIP / TFR affecting this airport [VIEW]
Communications frequencies: [VIEW]

Runways:

RWY identifierQFULength (ft)Width (ft)SurfaceLDA (ft)
11102°5400100ASPH
29282°5400100ASPH

Airport contact information

Address: Coatesville United States

Other aviation service providers

Flight schools

Chester County Aviation

Chester County Aviation

Satellite view of KMQS